Time;durP1;ratioP1;P1;durP2;ratioP2;P2;SDS_P1;SDS_P2;PMS_P1;PMS_P2;Temp;Humidity;BMP_temperature;BMP_pressure;BME280_temperature;BME280_humidity;BME280_pressure;Samples;Min_cycle;Max_cycle;Signal;HPM_P1;HPM_P2
2021/06/16 00:00:55;;;;;;;6.67;5.87;;;;;;;22.94;64.46;99119.00;3524308;28;20038;-71
2021/06/16 00:02:35;;;;;;;8.70;6.60;;;;;;;22.97;64.49;99124.66;3524743;28;20518;-70
2021/06/16 00:04:16;;;;;;;6.80;6.10;;;;;;;23.01;64.43;99123.00;3514764;28;20172;-70
2021/06/16 00:05:57;;;;;;;10.00;6.97;;;;;;;23.03;64.14;99128.16;3524624;28;20126;-71
2021/06/16 00:07:37;;;;;;;12.90;7.37;;;;;;;23.07;63.94;99119.13;3525607;28;20067;-68
2021/06/16 00:09:18;;;;;;;7.53;6.53;;;;;;;23.11;63.90;99126.72;3523980;28;20062;-70
2021/06/16 00:10:59;;;;;;;7.13;6.50;;;;;;;23.15;64.01;99122.28;3524701;27;20119;-70
2021/06/16 00:12:40;;;;;;;8.53;6.20;;;;;;;23.17;63.90;99128.25;3521609;28;20035;-72
2021/06/16 00:14:21;;;;;;;8.67;6.13;;;;;;;23.17;63.49;99128.25;3522284;28;20061;-70
2021/06/16 00:16:02;;;;;;;6.63;6.00;;;;;;;23.15;63.77;99125.81;3525240;28;20285;-70
2021/06/16 00:17:43;;;;;;;8.82;6.32;;;;;;;23.15;63.26;99120.38;3523894;28;20043;-71
2021/06/16 00:19:23;;;;;;;5.87;5.33;;;;;;;23.15;63.27;99119.56;3524879;28;20031;-70
2021/06/16 00:21:04;;;;;;;7.53;6.63;;;;;;;23.15;63.23;99123.09;3524746;28;20048;-71
2021/06/16 00:22:45;;;;;;;9.07;5.73;;;;;;;23.12;62.75;99120.16;3522537;28;20031;-71
2021/06/16 00:24:26;;;;;;;10.73;6.00;;;;;;;23.06;62.83;99125.66;3518753;28;20032;-70
2021/06/16 00:26:15;;;;;;;5.97;5.35;;;;;;;23.06;62.67;99128.38;3515135;28;20113;-70
2021/06/16 00:27:56;;;;;;;7.35;5.65;;;;;;;23.06;62.80;99122.13;3524010;28;20039;-69
2021/06/16 00:29:37;;;;;;;9.48;6.38;;;;;;;23.06;62.79;99128.38;3521157;28;20067;-69
2021/06/16 00:31:18;;;;;;;6.23;5.03;;;;;;;23.04;62.56;99133.28;3524049;28;20399;-70
2021/06/16 00:33:00;;;;;;;6.53;5.82;;;;;;;23.02;62.14;99131.97;3523813;28;20080;-70
2021/06/16 00:34:41;;;;;;;8.13;4.90;;;;;;;22.98;62.45;99139.91;3519284;28;20069;-70
2021/06/16 00:36:22;;;;;;;8.68;5.15;;;;;;;22.99;62.77;99133.34;3523297;28;20090;-70
2021/06/16 00:38:02;;;;;;;9.03;4.87;;;;;;;23.00;62.53;99151.28;3524717;28;20414;-70
2021/06/16 00:39:43;;;;;;;6.93;6.23;;;;;;;22.97;62.11;99140.97;3521544;28;20040;-71
2021/06/16 00:41:24;;;;;;;5.03;4.40;;;;;;;22.95;62.16;99136.91;3512075;28;20739;-71
2021/06/16 00:43:05;;;;;;;6.43;4.70;;;;;;;22.92;61.97;99132.84;3513423;28;20051;-71
2021/06/16 00:44:45;;;;;;;11.30;5.27;;;;;;;22.95;62.04;99131.47;3523556;28;20036;-71
2021/06/16 00:46:26;;;;;;;4.93;4.43;;;;;;;22.97;62.01;99140.97;3513441;28;20040;-71
2021/06/16 00:48:07;;;;;;;5.93;4.85;;;;;;;22.99;61.84;99135.28;3510385;28;20047;-69
2021/06/16 00:49:49;;;;;;;8.37;5.23;;;;;;;22.98;61.85;99133.66;3518333;28;20520;-69
2021/06/16 00:51:29;;;;;;;5.53;4.88;;;;;;;22.99;61.51;99137.97;3523298;28;20089;-70
2021/06/16 00:53:10;;;;;;;6.73;4.70;;;;;;;23.01;61.50;99141.22;3524593;28;20047;-69
2021/06/16 00:54:51;;;;;;;4.97;4.47;;;;;;;22.99;61.40;99144.22;3524730;28;20172;-70
2021/06/16 00:56:32;;;;;;;8.47;4.87;;;;;;;22.99;61.44;99141.50;3513526;28;20494;-71
2021/06/16 00:58:12;;;;;;;4.83;4.37;;;;;;;22.98;61.34;99142.63;3517383;28;20134;-71
2021/06/16 00:59:59;;;;;;;5.03;4.57;;;;;;;22.98;61.34;99137.19;3524305;28;20039;-71
2021/06/16 01:01:45;;;;;;;5.78;5.03;;;;;;;22.98;61.36;99144.53;3523366;28;20068;-71
2021/06/16 01:03:39;;;;;;;7.28;5.13;;;;;;;22.97;60.94;99140.97;3520994;28;20110;-70
2021/06/16 01:05:20;;;;;;;6.45;4.43;;;;;;;22.94;61.16;99144.25;3521522;28;20096;-70
2021/06/16 01:07:02;;;;;;;;;;;;;;;22.96;61.23;99141.25;3519374;28;20074;-70
2021/06/16 01:09:09;;;;;;;6.03;4.30;;;;;;;22.94;61.12;99146.16;3502977;28;20488;-70
2021/06/16 01:10:50;;;;;;;5.05;4.60;;;;;;;22.87;61.05;99143.78;3513257;28;20139;-70
2021/06/16 01:13:14;;;;;;;5.67;5.03;;;;;;;22.86;60.93;99139.47;3499158;28;20040;-70
2021/06/16 01:15:01;;;;;;;6.90;4.70;;;;;;;22.80;61.33;99146.06;3466053;28;20280;-70
2021/06/16 01:17:06;;;;;;;5.10;4.63;;;;;;;22.80;61.22;99146.06;3478378;28;20041;-71
2021/06/16 01:18:53;;;;;;;7.72;4.43;;;;;;;22.81;60.93;99147.66;3465147;28;20074;-68
2021/06/16 01:20:35;;;;;;;5.57;4.32;;;;;;;22.86;61.36;99148.41;3493226;28;20044;-71
2021/06/16 01:22:32;;;;;;;4.93;4.28;;;;;;;22.94;61.24;99152.41;3514629;28;20723;-69
2021/06/16 01:24:18;;;;;;;7.65;4.32;;;;;;;22.97;61.12;99157.28;3509703;28;20036;-72
2021/06/16 01:26:02;;;;;;;5.00;4.03;;;;;;;23.00;60.90;99158.63;3511786;28;20502;-72
2021/06/16 01:27:44;;;;;;;4.80;4.28;;;;;;;23.02;60.83;99153.72;3513477;28;20040;-71
2021/06/16 01:29:29;;;;;;;5.57;4.27;;;;;;;23.05;60.90;99148.53;3523305;28;20137;-70
2021/06/16 01:31:11;;;;;;;6.32;4.60;;;;;;;23.05;60.78;99148.53;3523757;28;20035;-70
2021/06/16 01:32:51;;;;;;;;;;;;;;;23.11;60.82;99160.13;3506252;28;20887;-70
2021/06/16 01:34:32;;;;;;;5.03;4.30;;;;;;;23.10;60.88;99163.13;3509870;28;19926;-70
2021/06/16 01:36:13;;;;;;;5.63;4.57;;;;;;;23.08;60.45;99153.38;3520858;28;20032;-69
2021/06/16 01:37:55;;;;;;;7.22;4.43;;;;;;;23.11;60.33;99153.91;3518878;28;20525;-69
2021/06/16 01:39:36;;;;;;;5.00;3.92;;;;;;;23.10;60.35;99154.97;3512692;28;20039;-70
2021/06/16 01:41:18;;;;;;;6.20;4.60;;;;;;;23.08;60.17;99153.38;3511307;28;20035;-70
2021/06/16 01:43:00;;;;;;;5.25;4.35;;;;;;;23.08;60.13;99158.81;3517572;28;20032;-69
2021/06/16 01:44:42;;;;;;;5.30;3.90;;;;;;;23.11;60.03;99151.97;3522513;28;20525;-70
2021/06/16 01:46:23;;;;;;;5.43;4.93;;;;;;;23.12;60.25;99164.47;3506127;28;20036;-69
2021/06/16 01:48:07;;;;;;;5.43;4.35;;;;;;;23.15;60.22;99163.88;3520644;28;20118;-70
2021/06/16 01:49:54;;;;;;;6.07;4.32;;;;;;;23.15;59.91;99158.44;3523499;28;20062;-70
2021/06/16 01:51:35;;;;;;;7.95;4.80;;;;;;;23.16;59.72;99153.84;3523869;28;20039;-70
2021/06/16 01:53:16;;;;;;;5.57;4.17;;;;;;;23.14;59.75;99156.84;3513715;28;20444;-69
2021/06/16 01:54:59;;;;;;;4.93;4.53;;;;;;;23.18;59.57;99154.31;3517231;28;20568;-69
2021/06/16 01:56:40;;;;;;;6.15;4.38;;;;;;;23.18;59.33;99165.19;3515790;28;20035;-69
2021/06/16 01:58:28;;;;;;;9.02;5.18;;;;;;;23.16;59.56;99168.22;3515730;28;20043;-69
2021/06/16 02:00:10;;;;;;;7.13;3.83;;;;;;;23.16;59.49;99170.16;3518840;28;20064;-69
2021/06/16 02:01:52;;;;;;;;;;;;;;;23.20;59.52;99169.25;3521218;28;20105;-69
2021/06/16 02:03:32;;;;;;;4.93;4.40;;;;;;;23.17;59.33;99177.19;3510149;28;19927;-70
2021/06/16 02:05:17;;;;;;;5.00;4.20;;;;;;;23.18;59.28;99178.78;3521640;28;20285;-70
2021/06/16 02:07:06;;;;;;;6.70;4.32;;;;;;;23.18;59.24;99181.53;3517357;28;20039;-70
2021/06/16 02:08:49;;;;;;;5.90;4.80;;;;;;;23.15;59.27;99176.66;3521230;28;20069;-70
2021/06/16 02:10:36;;;;;;;6.38;4.05;;;;;;;23.15;59.29;99180.19;3484967;28;20044;-71
2021/06/16 02:12:17;;;;;;;4.18;3.88;;;;;;;23.16;59.16;99181.81;3506648;28;20086;-69
2021/06/16 02:14:00;;;;;;;4.32;3.72;;;;;;;23.19;59.23;99181.25;3518392;28;20032;-69
2021/06/16 02:15:54;;;;;;;4.80;3.95;;;;;;;23.22;59.01;99185.28;3520304;28;20497;-71
2021/06/16 02:17:36;;;;;;;4.80;3.80;;;;;;;23.22;58.89;99188.00;3522497;28;20138;-70
2021/06/16 02:19:19;;;;;;;;;;;;;;;23.27;58.82;99188.75;3522279;28;20035;-69
2021/06/16 02:21:01;;;;;;;5.18;3.28;;;;;;;23.27;58.64;99190.66;3521598;28;19925;-69
2021/06/16 02:22:41;;;;;;;5.28;3.75;;;;;;;23.28;58.42;99184.94;3521506;28;20027;-70
2021/06/16 02:24:23;;;;;;;6.37;3.63;;;;;;;23.31;58.21;99183.53;3535220;28;20022;-71
2021/06/16 02:26:04;;;;;;;4.07;3.30;;;;;;;23.34;58.15;99193.84;3538289;28;20039;-70
2021/06/16 02:27:44;;;;;;;7.93;3.67;;;;;;;23.39;57.80;99193.78;3534820;28;20018;-71
2021/06/16 02:29:28;;;;;;;3.87;3.07;;;;;;;23.38;57.64;99178.53;3532015;28;20043;-69
2021/06/16 02:31:10;;;;;;;4.75;3.65;;;;;;;23.34;57.76;99177.53;3534132;28;20040;-69
2021/06/16 02:32:50;;;;;;;4.97;3.22;;;;;;;23.38;57.83;99191.34;3524443;28;20150;-71
2021/06/16 02:34:32;;;;;;;7.80;3.30;;;;;;;23.37;57.81;99193.25;3524241;28;20401;-70
2021/06/16 02:36:13;;;;;;;7.00;3.17;;;;;;;23.38;57.58;99185.91;3520457;28;20046;-71
2021/06/16 02:38:04;;;;;;;3.53;3.23;;;;;;;23.39;57.45;99182.91;3520475;28;20407;-70
2021/06/16 02:39:53;;;;;;;3.28;2.97;;;;;;;23.40;57.35;99186.44;3521831;28;20043;-71
2021/06/16 02:41:34;;;;;;;3.63;2.97;;;;;;;23.40;57.31;99184.50;3519172;28;20051;-70
2021/06/16 02:43:17;;;;;;;3.00;2.67;;;;;;;23.40;57.13;99189.94;3511836;28;20044;-70
2021/06/16 02:45:00;;;;;;;4.60;2.63;;;;;;;23.40;57.02;99192.66;3520062;28;20126;-70
2021/06/16 02:46:42;;;;;;;4.32;3.90;;;;;;;23.42;57.09;99186.94;3523139;28;20562;-72
2021/06/16 02:48:23;;;;;;;6.15;2.95;;;;;;;23.43;56.96;99202.97;3522773;28;20040;-72
2021/06/16 02:50:06;;;;;;;8.18;3.08;;;;;;;23.42;56.84;99192.38;3522206;28;20042;-71
2021/06/16 02:51:46;;;;;;;3.90;2.80;;;;;;;23.43;56.72;99197.53;3518848;28;20621;-71
2021/06/16 02:53:27;;;;;;;5.47;3.33;;;;;;;23.46;56.61;99207.81;3512799;28;20035;-72
2021/06/16 02:55:09;;;;;;;13.00;2.80;;;;;;;23.44;56.45;99204.59;3514078;28;20032;-71
2021/06/16 02:56:51;;;;;;;4.40;2.70;;;;;;;23.44;56.70;99210.03;3519367;28;20289;-70
2021/06/16 02:58:33;;;;;;;3.05;2.75;;;;;;;23.45;56.53;99208.94;3520464;28;20064;-71
2021/06/16 03:00:15;;;;;;;6.78;2.65;;;;;;;23.47;56.52;99211.38;3506016;28;20130;-70
2021/06/16 03:01:56;;;;;;;;;;;;;;;23.51;56.39;99202.31;3523202;28;20036;-70
2021/06/16 03:03:37;;;;;;;2.58;2.10;;;;;;;23.45;56.41;99214.38;3525967;28;20301;-69
2021/06/16 03:05:22;;;;;;;3.60;2.22;;;;;;;23.48;56.44;99221.13;3524002;28;20443;-70
2021/06/16 03:07:03;;;;;;;3.85;2.28;;;;;;;23.48;56.29;99226.56;3526008;28;20104;-71
2021/06/16 03:08:46;;;;;;;4.05;2.42;;;;;;;23.51;56.28;99234.94;3525943;28;20063;-71
2021/06/16 03:10:29;;;;;;;2.53;2.17;;;;;;;23.51;56.38;99232.22;3523640;28;20035;-71
2021/06/16 03:12:10;;;;;;;2.92;2.42;;;;;;;23.53;56.15;99234.66;3520671;28;20088;-70
2021/06/16 03:13:51;;;;;;;;;;;;;;;23.59;56.03;99230.78;3519653;28;20063;-69
2021/06/16 03:15:33;;;;;;;6.00;3.28;;;;;;;23.58;55.87;99236.53;3518407;28;20479;-71
2021/06/16 03:17:15;;;;;;;5.93;2.63;;;;;;;23.58;55.99;99231.09;3523297;28;20043;-70
2021/06/16 03:18:56;;;;;;;5.28;2.72;;;;;;;23.55;55.98;99226.22;3523237;28;20047;-71
2021/06/16 03:20:39;;;;;;;4.15;2.42;;;;;;;23.59;55.90;99235.41;3515771;28;20031;-71
2021/06/16 03:22:20;;;;;;;3.13;2.28;;;;;;;23.61;55.84;99235.94;3522222;28;20108;-70
2021/06/16 03:24:01;;;;;;;10.87;3.03;;;;;;;23.61;56.04;99235.94;3499634;28;20031;-70
2021/06/16 03:25:43;;;;;;;6.22;2.42;;;;;;;23.64;56.04;99243.50;3494799;28;20052;-70
2021/06/16 03:27:25;;;;;;;2.22;2.03;;;;;;;23.66;55.85;99238.59;3508244;28;20047;-70
2021/06/16 03:29:06;;;;;;;4.00;2.72;;;;;;;23.68;55.91;99239.13;3506782;28;20135;-71
2021/06/16 03:30:49;;;;;;;4.80;1.87;;;;;;;23.71;55.64;99233.09;3513191;28;20032;-71
2021/06/16 03:32:30;;;;;;;2.55;1.98;;;;;;;23.72;55.60;99246.44;3525099;28;20031;-71
2021/06/16 03:34:11;;;;;;;4.85;2.53;;;;;;;23.75;55.58;99239.59;3509670;28;20047;-72
2021/06/16 03:35:52;;;;;;;3.92;2.42;;;;;;;23.74;55.42;99251.56;3520597;28;20059;-71
2021/06/16 03:37:33;;;;;;;2.50;2.23;;;;;;;23.73;55.14;99250.78;3524223;28;20051;-71
2021/06/16 03:39:14;;;;;;;3.55;2.03;;;;;;;23.74;55.10;99251.56;3525051;28;20101;-70
2021/06/16 03:40:56;;;;;;;3.60;2.15;;;;;;;23.76;55.20;99254.00;3510916;28;20032;-72
2021/06/16 03:42:39;;;;;;;6.57;2.42;;;;;;;23.78;55.24;99238.22;3523006;28;20108;-70
2021/06/16 03:44:21;;;;;;;2.70;1.88;;;;;;;23.78;55.11;99243.66;3515421;28;20470;-69
2021/06/16 03:46:08;;;;;;;3.42;2.10;;;;;;;23.79;55.30;99246.06;3516344;28;20036;-71
2021/06/16 03:47:49;;;;;;;9.55;2.33;;;;;;;23.81;55.04;99252.03;3524610;28;20043;-71
2021/06/16 03:49:31;;;;;;;4.05;2.40;;;;;;;23.83;55.09;99254.47;3523319;28;20040;-69
2021/06/16 03:51:12;;;;;;;;;;;;;;;23.89;55.25;99253.28;3522048;28;20510;-72
2021/06/16 03:52:54;;;;;;;7.75;2.28;;;;;;;23.85;55.45;99249.53;3525369;28;19919;-71
2021/06/16 03:54:35;;;;;;;;;;;;;;;23.92;55.28;99252.69;3523974;28;20500;-71
2021/06/16 03:56:16;;;;;;;5.00;2.20;;;;;;;23.89;55.31;99251.38;3519912;28;19912;-71
2021/06/16 03:57:57;;;;;;;8.35;2.83;;;;;;;23.90;55.52;99258.41;3509222;28;20036;-72
2021/06/16 03:59:40;;;;;;;3.03;2.13;;;;;;;23.92;55.56;99255.41;3518188;28;20070;-73
2021/06/16 04:01:22;;;;;;;4.45;2.40;;;;;;;23.95;55.61;99260.28;3511160;28;20035;-71
2021/06/16 04:03:05;;;;;;;4.78;2.60;;;;;;;23.95;55.39;99261.06;3524502;28;20122;-71
2021/06/16 04:04:46;;;;;;;5.43;2.75;;;;;;;23.98;55.62;99261.59;3516254;28;20035;-71
2021/06/16 04:06:27;;;;;;;2.95;2.28;;;;;;;24.00;55.24;99260.19;3515860;28;20521;-72
2021/06/16 04:08:10;;;;;;;2.60;2.40;;;;;;;24.01;55.12;99266.44;3522235;28;20039;-72
2021/06/16 04:09:55;;;;;;;5.72;1.83;;;;;;;24.05;55.38;99262.03;3523718;28;20042;-71
2021/06/16 04:11:37;;;;;;;2.97;1.83;;;;;;;24.07;55.43;99265.28;3522036;28;20035;-73
2021/06/16 04:13:17;;;;;;;2.45;1.98;;;;;;;24.10;55.50;99260.06;3523237;28;20043;-72
2021/06/16 04:14:58;;;;;;;3.33;1.60;;;;;;;24.14;55.41;99263.00;3535186;27;20122;-73
2021/06/16 04:16:42;;;;;;;7.10;2.37;;;;;;;24.16;54.95;99274.41;3527653;27;20039;-72
2021/06/16 04:18:23;;;;;;;4.60;1.90;;;;;;;24.17;55.24;99268.66;3524025;28;20036;-72
2021/06/16 04:20:06;;;;;;;5.13;3.03;;;;;;;24.21;55.03;99276.25;3524498;28;20120;-71
2021/06/16 04:21:46;;;;;;;4.53;1.67;;;;;;;24.20;55.17;99266.47;3524449;27;20044;-71
2021/06/16 04:23:27;;;;;;;4.13;1.70;;;;;;;24.25;55.04;99272.63;3521119;28;20507;-72
2021/06/16 04:25:09;;;;;;;12.47;2.13;;;;;;;24.26;54.50;99268.78;3511228;28;20120;-71
2021/06/16 04:26:50;;;;;;;2.17;1.80;;;;;;;24.26;54.66;99263.34;3516530;28;20074;-70
2021/06/16 04:28:31;;;;;;;4.90;2.05;;;;;;;24.28;54.50;99272.03;3520635;28;20031;-73
2021/06/16 04:30:14;;;;;;;1.60;1.50;;;;;;;24.30;54.89;99271.75;3520544;28;20097;-72
2021/06/16 04:31:55;;;;;;;2.67;1.83;;;;;;;24.32;54.52;99278.53;3519947;27;20043;-71
2021/06/16 04:33:35;;;;;;;5.35;2.17;;;;;;;24.37;54.67;99283.09;3524512;28;20044;-72
2021/06/16 04:35:16;;;;;;;9.20;2.33;;;;;;;24.41;55.03;99283.31;3524729;28;20046;-70
2021/06/16 04:36:57;;;;;;;3.37;1.90;;;;;;;24.44;55.20;99279.97;3516353;28;20063;-71
2021/06/16 04:38:38;;;;;;;3.30;2.20;;;;;;;24.50;55.09;99284.25;3519250;28;20036;-72
2021/06/16 04:40:19;;;;;;;5.90;2.10;;;;;;;24.52;54.89;99284.78;3522758;28;20047;-71
2021/06/16 04:42:00;;;;;;;6.90;3.10;;;;;;;24.52;55.12;99287.50;3524896;28;20032;-71
2021/06/16 04:43:40;;;;;;;3.10;2.17;;;;;;;24.54;55.12;99288.84;3521314;28;20073;-74
2021/06/16 04:45:21;;;;;;;5.73;2.77;;;;;;;24.57;55.24;99290.16;3524613;28;20200;-71
2021/06/16 04:47:03;;;;;;;10.73;2.07;;;;;;;24.56;55.04;99288.53;3522536;28;20513;-72
2021/06/16 04:48:44;;;;;;;8.38;2.58;;;;;;;24.55;55.30;99293.19;3523124;28;20484;-72
2021/06/16 04:50:25;;;;;;;6.10;2.33;;;;;;;24.56;55.04;99288.53;3523239;28;20040;-71
2021/06/16 04:52:06;;;;;;;5.23;2.37;;;;;;;24.58;54.99;99302.69;3524309;28;20122;-72
2021/06/16 04:53:46;;;;;;;4.40;1.97;;;;;;;24.61;54.85;99295.84;3523168;28;20053;-76
2021/06/16 04:55:27;;;;;;;4.10;1.97;;;;;;;24.63;55.13;99297.16;3522057;28;20312;-72
2021/06/16 04:57:08;;;;;;;4.77;2.20;;;;;;;24.66;54.78;99298.47;3523793;28;20067;-74
2021/06/16 04:58:49;;;;;;;2.75;1.70;;;;;;;24.69;54.49;99301.41;3520621;28;20521;-73
2021/06/16 05:00:30;;;;;;;3.90;1.70;;;;;;;24.72;54.51;99302.72;3524307;28;20155;-74
2021/06/16 05:02:10;;;;;;;8.53;2.23;;;;;;;24.74;54.29;99300.53;3523937;28;20040;-73
2021/06/16 05:03:51;;;;;;;4.07;2.17;;;;;;;24.76;54.09;99304.56;3520747;28;20316;-73
2021/06/16 05:05:32;;;;;;;3.90;1.80;;;;;;;24.81;54.26;99307.22;3524337;28;20039;-74
2021/06/16 05:07:12;;;;;;;2.27;1.73;;;;;;;24.85;54.51;99306.59;3520831;28;20527;-74
2021/06/16 05:08:53;;;;;;;4.00;2.27;;;;;;;24.90;54.36;99310.06;3520079;28;20067;-73
2021/06/16 05:10:34;;;;;;;1.80;1.70;;;;;;;24.94;54.21;99315.72;3521113;28;20493;-74
2021/06/16 05:12:15;;;;;;;5.50;2.00;;;;;;;24.95;54.01;99306.44;3522323;28;20598;-73
2021/06/16 05:13:55;;;;;;;2.97;2.03;;;;;;;24.97;54.05;99310.47;3523162;28;20043;-73
2021/06/16 05:15:36;;;;;;;2.63;2.23;;;;;;;25.02;54.12;99306.84;3524054;28;20035;-74
2021/06/16 05:17:17;;;;;;;8.20;2.90;;;;;;;25.08;54.17;99310.31;3523621;28;20123;-72
2021/06/16 05:18:59;;;;;;;2.17;1.60;;;;;;;25.09;53.74;99317.38;3522895;28;20749;-71
2021/06/16 05:20:40;;;;;;;7.75;1.58;;;;;;;25.07;53.64;99308.66;3518177;28;20039;-74
2021/06/16 05:22:21;;;;;;;5.97;2.23;;;;;;;25.14;53.56;99315.34;3521963;28;20441;-70
2021/06/16 05:24:02;;;;;;;5.40;2.47;;;;;;;25.16;53.60;99324.06;3522588;28;20035;-72
2021/06/16 05:25:44;;;;;;;2.50;1.60;;;;;;;25.18;53.45;99321.88;3534788;27;20035;-71
2021/06/16 05:27:24;;;;;;;6.53;1.90;;;;;;;25.21;53.64;99320.47;3526854;27;20069;-71
2021/06/16 05:29:07;;;;;;;4.83;1.80;;;;;;;25.22;53.23;99320.16;3523502;28;20043;-72
2021/06/16 05:30:48;;;;;;;6.38;1.70;;;;;;;25.25;53.08;99313.31;3527888;27;20040;-71
2021/06/16 05:32:28;;;;;;;2.93;2.00;;;;;;;25.29;53.16;99321.69;3509498;28;20044;-73
2021/06/16 05:34:09;;;;;;;5.07;2.47;;;;;;;25.32;53.13;99324.59;3506783;28;20043;-74
2021/06/16 05:35:50;;;;;;;7.70;2.00;;;;;;;25.36;53.11;99327.56;3510049;28;20040;-73
2021/06/16 05:37:31;;;;;;;5.57;2.20;;;;;;;25.40;52.76;99331.28;3522750;28;20059;-72
2021/06/16 05:39:12;;;;;;;9.80;2.67;;;;;;;25.43;52.56;99327.97;3520069;28;20051;-72
2021/06/16 05:40:52;;;;;;;4.93;1.88;;;;;;;25.48;52.82;99336.06;3521657;28;20040;-72
2021/06/16 05:42:33;;;;;;;5.80;2.13;;;;;;;25.53;52.51;99338.69;3523396;28;20100;-71
2021/06/16 05:44:14;;;;;;;8.60;2.20;;;;;;;25.56;52.79;99335.34;3522673;28;20138;-72
2021/06/16 05:45:55;;;;;;;6.33;2.40;;;;;;;25.59;52.17;99337.47;3514777;28;20036;-71
2021/06/16 05:47:35;;;;;;;5.60;1.90;;;;;;;25.59;52.11;99337.47;3510215;28;20043;-71
2021/06/16 05:49:16;;;;;;;4.20;2.10;;;;;;;25.59;52.49;99337.47;3516408;28;20055;-71
2021/06/16 05:50:57;;;;;;;6.70;2.10;;;;;;;25.58;52.33;99338.59;3523992;28;20036;-72
2021/06/16 05:52:38;;;;;;;3.65;2.28;;;;;;;25.62;52.17;99346.97;3510099;28;20043;-71
2021/06/16 05:54:19;;;;;;;2.23;1.40;;;;;;;25.67;52.10;99349.59;3518047;28;20075;-72
2021/06/16 05:56:00;;;;;;;3.58;1.65;;;;;;;25.70;52.03;99349.00;3523816;28;20027;-72
2021/06/16 05:57:41;;;;;;;5.87;1.93;;;;;;;25.71;51.87;99341.59;3522754;28;20039;-73
2021/06/16 05:59:22;;;;;;;4.32;1.88;;;;;;;25.73;51.83;99348.38;3522814;28;20041;-71
2021/06/16 06:01:03;;;;;;;3.63;1.93;;;;;;;25.77;51.48;99343.16;3512687;28;20043;-72
2021/06/16 06:02:44;;;;;;;1.67;1.50;;;;;;;25.81;51.11;99342.22;3516073;28;20089;-71
2021/06/16 06:04:25;;;;;;;3.67;1.58;;;;;;;25.87;50.89;99348.44;3518914;28;20032;-74
2021/06/16 06:06:05;;;;;;;5.80;1.60;;;;;;;25.93;50.75;99341.75;3522205;28;20039;-73
2021/06/16 06:07:46;;;;;;;5.17;1.90;;;;;;;25.95;50.59;99349.63;3524065;28;20035;-72
2021/06/16 06:09:27;;;;;;;7.33;2.00;;;;;;;25.92;50.93;99348.31;3522219;28;20136;-72
2021/06/16 06:11:08;;;;;;;3.20;1.70;;;;;;;25.87;51.09;99354.69;3519089;28;20044;-72
2021/06/16 06:12:48;;;;;;;6.90;1.63;;;;;;;25.83;50.96;99352.84;3523277;28;20498;-71
2021/06/16 06:14:29;;;;;;;1.60;1.40;;;;;;;25.77;50.89;99349.41;3523149;28;20130;-72
2021/06/16 06:16:11;;;;;;;1.53;1.30;;;;;;;25.80;51.21;99356.97;3523814;28;20118;-73
2021/06/16 06:17:51;;;;;;;3.05;1.38;;;;;;;25.86;51.02;99363.19;3524062;28;20074;-72
2021/06/16 06:19:32;;;;;;;2.27;1.33;;;;;;;25.91;50.92;99360.34;3523973;28;20456;-73
2021/06/16 06:21:13;;;;;;;3.40;2.13;;;;;;;25.92;50.69;99364.72;3520745;28;20675;-72
2021/06/16 06:22:56;;;;;;;5.90;1.73;;;;;;;25.93;50.66;99355.41;3516726;28;20028;-72
2021/06/16 06:24:37;;;;;;;2.40;1.85;;;;;;;25.98;50.36;99365.41;3522524;28;20077;-72
2021/06/16 06:26:18;;;;;;;3.65;1.67;;;;;;;26.04;49.83;99354.06;3511825;28;20039;-74
2021/06/16 06:27:59;;;;;;;4.63;1.70;;;;;;;26.14;49.64;99360.44;3516242;28;20050;-70
2021/06/16 06:29:40;;;;;;;3.40;1.67;;;;;;;26.18;49.81;99358.72;3517171;28;20039;-70
2021/06/16 06:31:21;;;;;;;3.17;1.90;;;;;;;26.25;49.54;99364.53;3520322;28;20289;-72
2021/06/16 06:33:04;;;;;;;7.28;1.92;;;;;;;26.34;49.09;99365.44;3527004;28;20043;-71
2021/06/16 06:34:45;;;;;;;6.25;1.58;;;;;;;26.44;49.40;99367.16;3525274;28;20042;-71
2021/06/16 06:36:28;;;;;;;4.97;2.10;;;;;;;26.53;48.90;99368.84;3523730;28;20044;-72
2021/06/16 06:38:12;;;;;;;2.90;1.58;;;;;;;26.61;48.03;99375.50;3515837;28;20082;-70
2021/06/16 06:39:52;;;;;;;4.00;1.67;;;;;;;26.71;47.89;99388.16;3520657;28;20463;-72
2021/06/16 06:41:33;;;;;;;7.38;1.60;;;;;;;26.79;47.59;99378.41;3520572;28;20085;-74
2021/06/16 06:43:14;;;;;;;3.50;1.73;;;;;;;26.88;47.71;99376.56;3513138;28;20035;-71
2021/06/16 06:44:55;;;;;;;4.63;1.50;;;;;;;26.97;47.11;99382.88;3524185;28;20054;-70
2021/06/16 06:46:35;;;;;;;3.77;1.90;;;;;;;27.06;46.81;99372.81;3524339;28;20350;-72
2021/06/16 06:48:18;;;;;;;4.97;1.50;;;;;;;27.11;46.22;99378.16;3524756;28;20044;-71
2021/06/16 06:50:00;;;;;;;3.30;1.80;;;;;;;27.17;45.99;99382.41;3525143;27;20402;-71
2021/06/16 06:51:41;;;;;;;3.22;1.60;;;;;;;27.17;46.12;99378.81;3523566;28;20464;-72
2021/06/16 06:53:22;;;;;;;1.90;1.43;;;;;;;27.20;45.99;99378.22;3523481;28;20130;-73
2021/06/16 06:55:03;;;;;;;7.55;2.20;;;;;;;27.25;46.20;99380.03;3522334;28;20051;-72
2021/06/16 06:56:44;;;;;;;1.85;1.50;;;;;;;27.32;46.09;99383.94;3525528;28;20050;-71
2021/06/16 06:58:25;;;;;;;5.60;1.97;;;;;;;27.28;45.96;99382.94;3522907;28;20042;-72
2021/06/16 07:00:09;;;;;;;6.35;1.70;;;;;;;27.24;45.77;99383.91;3514180;28;20123;-72
2021/06/16 07:01:49;;;;;;;3.30;1.40;;;;;;;27.21;45.84;99381.75;3527289;27;20035;-74
2021/06/16 07:03:33;;;;;;;5.63;1.93;;;;;;;27.15;45.57;99390.06;3537048;28;20074;-71
2021/06/16 07:05:16;;;;;;;5.45;1.90;;;;;;;27.08;45.91;99384.25;3540685;28;20015;-72
2021/06/16 07:06:57;;;;;;;5.07;1.65;;;;;;;27.05;45.81;99393.06;3539473;28;20027;-70
2021/06/16 07:08:38;;;;;;;4.90;1.70;;;;;;;27.02;45.46;99387.41;3539405;27;20043;-71
2021/06/16 07:10:19;;;;;;;4.23;1.70;;;;;;;27.03;45.73;99395.31;3531286;28;20031;-72
2021/06/16 07:11:59;;;;;;;2.30;1.73;;;;;;;27.01;45.47;99399.50;3521739;28;20490;-72
2021/06/16 07:13:40;;;;;;;2.70;1.60;;;;;;;27.00;45.41;99403.31;3524642;28;20027;-74
2021/06/16 07:15:21;;;;;;;2.50;1.47;;;;;;;27.05;44.85;99408.69;3525860;28;20040;-72
2021/06/16 07:17:01;;;;;;;4.60;1.60;;;;;;;27.04;45.01;99407.88;3525638;28;20032;-73
2021/06/16 07:18:42;;;;;;;5.40;1.37;;;;;;;27.03;44.63;99402.69;3525108;28;20498;-73
2021/06/16 07:20:23;;;;;;;3.07;1.50;;;;;;;27.07;44.23;99406.44;3521679;28;20036;-71
2021/06/16 07:22:04;;;;;;;4.00;1.55;;;;;;;27.09;43.83;99409.69;3524312;27;20108;-72
2021/06/16 07:23:45;;;;;;;4.03;1.25;;;;;;;27.17;43.91;99411.66;3525898;28;20031;-73
2021/06/16 07:25:26;;;;;;;5.03;1.47;;;;;;;27.21;43.58;99418.16;3524513;28;20050;-72
2021/06/16 07:27:07;;;;;;;8.57;2.13;;;;;;;27.30;43.01;99418.22;3524406;28;20409;-73
2021/06/16 07:28:48;;;;;;;1.73;1.52;;;;;;;27.39;42.88;99416.31;3523763;28;20040;-73
2021/06/16 07:30:32;;;;;;;3.77;1.67;;;;;;;27.50;42.69;99427.84;3523626;28;20035;-71
2021/06/16 07:32:17;;;;;;;3.83;1.67;;;;;;;27.60;42.45;99422.09;3519443;28;20044;-73
2021/06/16 07:33:58;;;;;;;2.15;1.50;;;;;;;27.71;42.00;99420.69;3514755;28;20043;-71
2021/06/16 07:35:39;;;;;;;5.20;1.53;;;;;;;27.81;42.09;99419.66;3519158;28;20072;-71
2021/06/16 07:37:20;;;;;;;4.75;1.75;;;;;;;27.90;41.88;99419.66;3523229;28;20062;-72
2021/06/16 07:39:00;;;;;;;3.80;1.30;;;;;;;27.98;41.82;99427.09;3517936;28;20075;-71
2021/06/16 07:40:41;;;;;;;3.37;1.70;;;;;;;28.06;41.62;99420.84;3525842;28;20418;-71
2021/06/16 07:42:22;;;;;;;7.27;2.10;;;;;;;28.13;41.40;99429.41;3524137;28;20288;-72
2021/06/16 07:44:03;;;;;;;3.60;1.93;;;;;;;28.20;41.57;99435.25;3523610;28;20386;-72
2021/06/16 07:45:44;;;;;;;2.25;1.98;;;;;;;28.27;41.50;99427.38;3519168;28;20039;-71
2021/06/16 07:47:25;;;;;;;3.27;1.83;;;;;;;28.35;41.56;99433.19;3520097;28;20043;-70
2021/06/16 07:49:05;;;;;;;4.43;2.00;;;;;;;28.44;41.32;99429.34;3525098;28;20350;-72
2021/06/16 07:50:46;;;;;;;3.83;2.33;;;;;;;28.51;41.23;99428.91;3521813;28;20495;-70
2021/06/16 07:52:28;;;;;;;2.60;1.43;;;;;;;28.60;41.17;99429.69;3522942;28;20044;-71
2021/06/16 07:54:11;;;;;;;2.47;1.90;;;;;;;28.68;40.62;99431.66;3519944;28;20031;-71
2021/06/16 07:55:54;;;;;;;2.50;1.30;;;;;;;28.76;40.94;99426.47;3517993;28;20082;-73
2021/06/16 07:57:34;;;;;;;4.40;1.90;;;;;;;28.82;40.64;99430.69;3517560;28;20044;-73
2021/06/16 07:59:15;;;;;;;4.87;1.97;;;;;;;28.83;40.38;99437.78;3523444;28;20039;-73
2021/06/16 08:00:56;;;;;;;2.13;1.50;;;;;;;28.78;40.07;99430.50;3524153;28;20039;-70